Time;durP1;ratioP1;P1;durP2;ratioP2;P2;SDS_P1;SDS_P2;PMS_P1;PMS_P2;Temp;Humidity;BMP_temperature;BMP_pressure;BME280_temperature;BME280_humidity;BME280_pressure;Samples;Min_cycle;Max_cycle;Signal;HPM_P1;HPM_P2
2021/08/18 00:00:55;;;;;;;6.93;3.45;;;;;;;13.08;67.21;100502.59;4930956;29;20071;-80
2021/08/18 00:03:20;;;;;;;6.93;3.78;;;;;;;13.09;67.25;100505.19;4947266;29;20048;-79
2021/08/18 00:05:46;;;;;;;7.10;3.55;;;;;;;13.06;67.71;100515.84;4936071;29;20039;-80
2021/08/18 00:08:12;;;;;;;6.18;3.42;;;;;;;13.05;67.19;100508.81;4935129;29;20035;-79
2021/08/18 00:10:39;;;;;;;7.30;3.72;;;;;;;12.95;67.87;100515.16;4943879;29;20027;-79
2021/08/18 00:13:07;;;;;;;6.82;3.90;;;;;;;12.96;68.02;100508.09;4930681;29;20040;-80
2021/08/18 00:15:32;;;;;;;7.07;4.20;;;;;;;12.93;68.05;100503.72;4935856;29;20055;-79
2021/08/18 00:18:00;;;;;;;5.88;3.42;;;;;;;12.89;68.26;100504.66;4931599;29;20039;-79
2021/08/18 00:20:27;;;;;;;7.25;3.88;;;;;;;12.86;68.90;100510.00;4932144;29;20063;-79
2021/08/18 00:22:53;;;;;;;6.72;4.15;;;;;;;12.87;68.76;100512.66;4911641;29;20036;-80
2021/08/18 00:25:18;;;;;;;6.03;3.58;;;;;;;12.90;69.18;100511.72;4934678;29;20063;-79
2021/08/18 00:27:43;;;;;;;6.40;3.85;;;;;;;13.02;68.79;100515.94;4933820;29;20407;-79
2021/08/18 00:30:09;;;;;;;6.45;3.75;;;;;;;13.07;68.76;100509.69;4933449;29;20408;-79
2021/08/18 00:32:35;;;;;;;7.25;3.78;;;;;;;13.21;68.38;100513.88;4951036;29;20844;-80
2021/08/18 00:35:00;;;;;;;8.63;4.13;;;;;;;13.20;68.77;100512.97;4932316;29;20047;-79
2021/08/18 00:37:25;;;;;;;9.82;4.28;;;;;;;13.35;67.87;100511.88;4936316;29;20047;-79
2021/08/18 00:39:51;;;;;;;7.75;4.30;;;;;;;13.33;67.97;100503.06;4934176;29;20044;-79
2021/08/18 00:42:20;;;;;;;6.22;3.60;;;;;;;13.39;67.94;100500.31;4934867;29;20036;-79
2021/08/18 00:44:45;;;;;;;7.35;3.75;;;;;;;13.36;67.88;100497.69;4934475;29;20475;-78
2021/08/18 00:47:10;;;;;;;6.53;3.65;;;;;;;13.31;68.02;100500.47;4933845;29;20036;-79
2021/08/18 00:49:36;;;;;;;7.20;3.63;;;;;;;13.28;68.56;100505.81;4934999;29;20048;-78
2021/08/18 00:52:02;;;;;;;6.60;4.20;;;;;;;13.22;68.47;100497.06;4934869;29;20050;-79
2021/08/18 00:54:27;;;;;;;5.88;3.97;;;;;;;13.16;68.77;100501.56;4936069;29;20043;-79
2021/08/18 00:56:53;;;;;;;7.32;3.85;;;;;;;13.05;69.30;100503.53;4935834;29;20068;-80
2021/08/18 00:59:19;;;;;;;7.03;3.72;;;;;;;13.01;69.50;100508.91;4937685;29;20127;-79
2021/08/18 01:01:45;;;;;;;9.85;3.60;;;;;;;12.89;70.29;100502.91;4934569;29;20040;-78
2021/08/18 01:04:11;;;;;;;7.63;3.95;;;;;;;12.90;69.69;100502.00;4938553;29;20098;-79
2021/08/18 01:06:39;;;;;;;7.88;4.38;;;;;;;12.82;69.94;100503.03;4949687;29;20046;-79
2021/08/18 01:09:07;;;;;;;8.75;4.57;;;;;;;12.72;70.33;100507.56;4935533;29;20103;-79
2021/08/18 01:11:35;;;;;;;7.13;3.80;;;;;;;12.68;71.06;100512.06;4936458;29;20036;-79
2021/08/18 01:14:01;;;;;;;7.47;4.30;;;;;;;12.61;71.03;100504.22;4933826;29;20055;-79
2021/08/18 01:16:26;;;;;;;7.75;4.68;;;;;;;12.58;71.41;100501.63;4950159;29;20070;-79
2021/08/18 01:18:52;;;;;;;6.72;4.22;;;;;;;12.53;71.37;100500.81;4947734;29;20496;-80
2021/08/18 01:21:17;;;;;;;5.72;3.63;;;;;;;12.47;71.44;100496.47;4937322;29;20501;-79
2021/08/18 01:23:42;;;;;;;8.40;4.05;;;;;;;12.44;72.10;100501.81;4932413;29;20044;-80
2021/08/18 01:26:08;;;;;;;7.00;4.18;;;;;;;12.39;72.57;100501.00;4915092;29;20787;-80
2021/08/18 01:28:33;;;;;;;7.25;4.18;;;;;;;12.35;72.61;100502.81;4935583;29;20406;-80
2021/08/18 01:30:58;;;;;;;6.70;4.25;;;;;;;12.35;72.70;100501.94;4928975;29;20059;-80
2021/08/18 01:33:24;;;;;;;8.10;4.38;;;;;;;12.32;72.83;100515.22;4931464;29;20031;-80
2021/08/18 01:35:51;;;;;;;7.78;4.40;;;;;;;12.33;73.03;100514.31;4935308;29;20042;-79
2021/08/18 01:38:19;;;;;;;7.10;4.43;;;;;;;12.37;73.03;100513.41;4933328;29;20055;-80
2021/08/18 01:40:47;;;;;;;6.50;4.35;;;;;;;12.33;73.61;100509.03;4947757;29;20486;-80
2021/08/18 01:43:13;;;;;;;5.95;3.67;;;;;;;12.43;72.80;100508.00;4929114;29;20044;-80
2021/08/18 01:45:44;;;;;;;8.05;4.38;;;;;;;12.52;73.20;100507.88;4937864;29;20130;-80
2021/08/18 01:48:35;;;;;;;7.78;3.97;;;;;;;12.57;72.67;100500.72;4928490;29;20071;-80
2021/08/18 01:51:03;;;;;;;7.05;4.20;;;;;;;12.65;72.38;100500.63;4925722;29;20116;-79
2021/08/18 01:53:32;;;;;;;8.20;4.10;;;;;;;12.68;72.28;100498.81;4932291;29;20043;-80
2021/08/18 01:56:03;;;;;;;8.27;4.22;;;;;;;12.69;72.89;100497.03;4930284;29;20087;-79
2021/08/18 01:58:29;;;;;;;7.88;4.47;;;;;;;12.66;72.81;100499.75;4929836;29;20040;-79
2021/08/18 02:00:55;;;;;;;6.13;3.92;;;;;;;12.71;72.65;100493.47;4933120;29;20028;-79
2021/08/18 02:03:22;;;;;;;8.50;4.15;;;;;;;12.72;72.19;100492.56;4931645;29;20499;-79
2021/08/18 02:05:47;;;;;;;10.30;4.68;;;;;;;12.69;73.07;100503.19;4933401;29;20036;-79
2021/08/18 02:08:12;;;;;;;6.63;3.58;;;;;;;12.67;72.89;100482.94;4927000;29;20051;-79
2021/08/18 02:10:38;;;;;;;8.70;4.75;;;;;;;12.66;72.88;100489.16;4930217;29;20047;-80
2021/08/18 02:13:03;;;;;;;7.50;4.50;;;;;;;12.62;72.69;100493.59;4928296;29;20057;-79
2021/08/18 02:15:31;;;;;;;8.25;4.35;;;;;;;12.66;72.54;100484.72;4930135;29;20038;-79
2021/08/18 02:17:58;;;;;;;6.82;4.47;;;;;;;12.71;72.36;100493.47;4932793;29;20040;-79
2021/08/18 02:20:28;;;;;;;10.10;4.97;;;;;;;12.68;73.40;100488.22;4933179;29;20053;-79
2021/08/18 02:22:55;;;;;;;8.13;4.68;;;;;;;12.67;72.75;100481.16;4934819;29;20095;-79
2021/08/18 02:25:21;;;;;;;7.15;3.92;;;;;;;12.67;72.99;100482.94;4929981;29;20040;-79
2021/08/18 02:27:47;;;;;;;8.40;4.90;;;;;;;12.55;73.56;100480.47;4931435;29;20050;-79
2021/08/18 02:30:15;;;;;;;10.70;5.07;;;;;;;12.52;73.05;100476.09;4931967;29;20367;-80
2021/08/18 02:32:40;;;;;;;8.32;4.90;;;;;;;12.44;73.41;100483.28;4933761;29;20038;-79
2021/08/18 02:35:07;;;;;;;8.55;4.10;;;;;;;12.35;74.32;100483.44;4938438;29;20118;-78
2021/08/18 02:37:32;;;;;;;6.82;4.22;;;;;;;12.30;74.05;100472.03;4932549;29;20049;-78
2021/08/18 02:39:58;;;;;;;8.70;4.70;;;;;;;12.25;74.55;100480.03;4932876;29;20036;-79
2021/08/18 02:42:24;;;;;;;7.57;4.30;;;;;;;12.25;74.43;100480.91;4933108;29;20044;-79
2021/08/18 02:44:49;;;;;;;8.63;4.60;;;;;;;12.22;74.90;100480.94;4931885;29;20047;-79
2021/08/18 02:47:15;;;;;;;8.20;5.07;;;;;;;12.27;74.39;100472.94;4933784;29;20043;-78
2021/08/18 02:49:40;;;;;;;8.27;5.05;;;;;;;12.27;74.31;100479.13;4933120;29;20051;-78
2021/08/18 02:52:06;;;;;;;7.88;4.40;;;;;;;12.25;74.45;100470.31;4935222;29;20038;-79
2021/08/18 02:54:32;;;;;;;8.63;5.20;;;;;;;12.22;74.60;100473.00;4931154;29;20103;-79
2021/08/18 02:56:58;;;;;;;8.68;5.10;;;;;;;12.18;75.55;100479.25;4934883;29;20127;-79
2021/08/18 02:59:23;;;;;;;7.28;4.88;;;;;;;12.23;74.86;100472.09;4936084;29;20071;-80
2021/08/18 03:01:49;;;;;;;7.18;4.82;;;;;;;12.26;75.14;100477.38;4931037;29;20052;-80
2021/08/18 03:04:15;;;;;;;8.30;4.50;;;;;;;12.36;74.39;100479.88;4933497;29;20031;-80
2021/08/18 03:06:40;;;;;;;7.82;4.43;;;;;;;12.40;74.21;100471.00;4931714;29;20130;-80
2021/08/18 03:09:06;;;;;;;7.10;4.82;;;;;;;12.41;73.94;100476.25;4934946;29;20075;-79
2021/08/18 03:11:31;;;;;;;8.27;5.10;;;;;;;12.38;74.23;100471.00;4932573;29;20047;-79
2021/08/18 03:13:56;;;;;;;9.32;5.22;;;;;;;12.32;74.34;100460.53;4948674;29;20043;-79
2021/08/18 03:16:21;;;;;;;9.60;5.97;;;;;;;12.25;74.28;100458.84;4934152;29;20035;-79
2021/08/18 03:18:47;;;;;;;8.88;5.53;;;;;;;12.21;74.56;100467.75;4935848;29;20062;-79
2021/08/18 03:21:12;;;;;;;9.43;5.63;;;;;;;12.14;74.62;100461.66;4935230;29;20044;-80
2021/08/18 03:23:37;;;;;;;9.82;5.70;;;;;;;12.12;74.85;100466.09;4935516;29;20044;-80
2021/08/18 03:26:03;;;;;;;7.90;5.28;;;;;;;12.07;74.81;100462.63;4935099;29;20044;-78
2021/08/18 03:28:29;;;;;;;9.45;6.20;;;;;;;12.04;75.05;100473.25;4939820;29;20047;-80
2021/08/18 03:30:54;;;;;;;8.95;5.43;;;;;;;12.00;75.26;100472.44;4952601;29;20040;-79
2021/08/18 03:33:19;;;;;;;8.40;5.32;;;;;;;11.96;75.98;100464.53;4933278;29;20042;-79
2021/08/18 03:35:45;;;;;;;10.15;6.38;;;;;;;11.90;76.29;100462.84;4934408;29;20052;-79
2021/08/18 03:38:10;;;;;;;9.18;5.40;;;;;;;11.92;76.09;100471.66;4934270;29;20054;-79
2021/08/18 03:40:35;;;;;;;9.82;6.10;;;;;;;11.91;76.02;100463.72;4929965;29;20039;-79
2021/08/18 03:43:02;;;;;;;9.75;5.78;;;;;;;11.93;75.86;100468.09;4930924;29;20051;-79
2021/08/18 03:45:27;;;;;;;8.85;5.60;;;;;;;11.96;75.93;100468.06;4931543;29;20019;-79
2021/08/18 03:47:53;;;;;;;11.75;6.10;;;;;;;12.02;75.77;100467.97;4940332;29;20060;-80
2021/08/18 03:50:18;;;;;;;10.85;5.95;;;;;;;12.06;76.02;100469.69;4934174;29;20507;-79
2021/08/18 03:52:44;;;;;;;9.05;5.82;;;;;;;12.15;75.65;100467.81;4930691;29;20043;-79
2021/08/18 03:55:10;;;;;;;9.23;6.15;;;;;;;12.23;75.28;100464.16;4934880;29;20047;-79
2021/08/18 03:57:36;;;;;;;10.98;6.60;;;;;;;12.26;75.21;100460.59;4936055;29;20048;-79
2021/08/18 04:00:02;;;;;;;13.10;6.15;;;;;;;12.31;75.28;100465.84;4936809;29;20040;-79
2021/08/18 04:02:30;;;;;;;10.85;6.25;;;;;;;12.38;74.86;100467.50;4933916;29;20046;-80
2021/08/18 04:04:55;;;;;;;9.65;5.72;;;;;;;12.37;75.16;100457.81;4933191;29;20039;-79
2021/08/18 04:07:21;;;;;;;9.45;5.90;;;;;;;12.34;75.22;100453.44;4931520;29;20050;-78
2021/08/18 04:09:46;;;;;;;9.32;6.05;;;;;;;12.43;75.34;100457.72;4929750;29;20040;-79
2021/08/18 04:12:11;;;;;;;14.07;7.72;;;;;;;12.52;74.69;100457.56;4932386;29;20040;-77
2021/08/18 04:14:37;;;;;;;14.80;7.45;;;;;;;12.67;74.93;100467.94;4938822;29;20039;-80
2021/08/18 04:17:02;;;;;;;11.55;6.65;;;;;;;12.81;73.84;100465.06;4954452;29;20111;-79
2021/08/18 04:19:27;;;;;;;9.50;5.68;;;;;;;12.98;73.79;100466.56;4938055;29;20032;-81
2021/08/18 04:21:53;;;;;;;11.40;5.78;;;;;;;13.05;73.10;100460.25;4935599;29;20108;-79
2021/08/18 04:24:18;;;;;;;9.45;5.45;;;;;;;13.11;73.15;100462.78;4910433;29;20048;-78
2021/08/18 04:26:44;;;;;;;9.35;5.93;;;;;;;13.22;72.71;100467.91;4930107;29;20103;-79
2021/08/18 04:29:09;;;;;;;12.13;5.57;;;;;;;13.30;72.66;100473.97;4928728;29;20104;-80
2021/08/18 04:31:34;;;;;;;9.63;5.53;;;;;;;13.35;72.39;100467.69;4926590;29;20044;-80
2021/08/18 04:34:00;;;;;;;9.55;5.88;;;;;;;13.41;72.47;100466.69;4931060;29;20036;-80
2021/08/18 04:36:25;;;;;;;11.27;6.38;;;;;;;13.54;72.18;100467.31;4942939;29;20040;-80
2021/08/18 04:38:50;;;;;;;9.38;5.55;;;;;;;13.57;71.70;100465.50;4930120;29;20034;-79
2021/08/18 04:41:16;;;;;;;10.88;6.05;;;;;;;13.70;71.87;100457.28;4937422;29;20036;-79
2021/08/18 04:43:41;;;;;;;9.52;6.07;;;;;;;13.75;71.38;100466.94;4941786;29;20044;-80
2021/08/18 04:46:07;;;;;;;10.27;5.55;;;;;;;13.81;71.07;100468.56;4946446;29;20063;-80
2021/08/18 04:48:32;;;;;;;11.00;5.88;;;;;;;13.82;71.04;100470.31;4949062;29;20044;-80
2021/08/18 04:50:57;;;;;;;9.27;5.32;;;;;;;13.85;71.13;100467.59;4960687;29;20044;-80
2021/08/18 04:53:23;;;;;;;9.75;5.70;;;;;;;13.90;70.97;100473.69;4925772;29;20032;-81
2021/08/18 04:55:49;;;;;;;10.80;5.68;;;;;;;13.90;70.98;100475.47;4937164;29;20693;-81
2021/08/18 04:58:14;;;;;;;9.60;5.78;;;;;;;14.00;70.90;100471.72;4927869;29;20040;-79
2021/08/18 05:00:39;;;;;;;10.32;5.65;;;;;;;14.03;70.71;100475.16;4934284;29;20040;-80
2021/08/18 05:03:05;;;;;;;9.90;5.63;;;;;;;14.06;70.46;100465.41;4945255;29;20046;-80
2021/08/18 05:05:30;;;;;;;8.52;5.22;;;;;;;14.12;70.61;100471.47;4934952;29;20044;-80
2021/08/18 05:07:58;;;;;;;10.43;5.57;;;;;;;14.15;70.48;100478.47;4937625;29;20039;-79
2021/08/18 05:10:23;;;;;;;8.88;5.53;;;;;;;14.21;70.24;100473.91;4930413;29;20075;-80
2021/08/18 05:12:49;;;;;;;9.32;5.25;;;;;;;14.22;70.47;100478.28;4935043;29;20063;-80
2021/08/18 05:15:15;;;;;;;9.48;5.88;;;;;;;14.28;70.31;100477.31;4927253;29;20100;-80
2021/08/18 05:17:44;;;;;;;11.13;6.55;;;;;;;14.30;70.37;100477.25;4918295;29;20044;-80
2021/08/18 05:20:09;;;;;;;9.18;5.63;;;;;;;14.42;70.18;100475.19;4938478;29;20047;-80
2021/08/18 05:22:35;;;;;;;8.95;5.20;;;;;;;14.54;69.67;100476.75;4927352;29;20039;-80
2021/08/18 05:25:00;;;;;;;10.52;5.97;;;;;;;14.56;69.55;100477.56;4931244;29;20053;-80
2021/08/18 05:27:25;;;;;;;9.00;5.55;;;;;;;14.59;69.74;100477.50;4927586;29;20075;-80
2021/08/18 05:29:51;;;;;;;7.18;4.72;;;;;;;14.65;69.63;100487.13;4931360;29;20079;-80
2021/08/18 05:32:16;;;;;;;8.00;5.18;;;;;;;14.58;69.84;100483.72;4928821;29;20051;-80
2021/08/18 05:34:41;;;;;;;7.90;5.03;;;;;;;14.61;69.69;100480.97;4929798;29;20073;-80
2021/08/18 05:37:07;;;;;;;9.55;5.72;;;;;;;14.68;69.62;100484.38;4936458;29;20027;-80
2021/08/18 05:39:32;;;;;;;10.90;6.28;;;;;;;14.71;69.83;100484.31;4936093;29;20403;-81
2021/08/18 05:41:57;;;;;;;10.45;5.10;;;;;;;14.78;69.68;100482.38;4951515;28;20406;-80
2021/08/18 05:44:23;;;;;;;8.68;4.80;;;;;;;14.84;69.40;100484.88;4936546;29;20521;-80
2021/08/18 05:46:49;;;;;;;8.38;4.90;;;;;;;14.86;69.38;100485.72;4939536;29;20495;-80
2021/08/18 05:49:20;;;;;;;6.47;4.50;;;;;;;14.90;69.60;100488.25;4938588;28;20195;-80
2021/08/18 05:51:47;;;;;;;9.77;5.00;;;;;;;15.02;69.62;100476.44;4935538;29;20605;-80
2021/08/18 05:54:12;;;;;;;7.88;5.00;;;;;;;15.11;68.94;100475.34;4931460;29;20035;-80
2021/08/18 05:56:37;;;;;;;7.65;5.22;;;;;;;15.20;68.75;100477.78;4928422;29;20092;-81
2021/08/18 05:59:03;;;;;;;7.65;4.78;;;;;;;15.40;68.59;100476.34;4930475;29;20074;-80
2021/08/18 06:01:28;;;;;;;10.73;4.90;;;;;;;15.34;68.33;100478.25;4928419;29;20051;-80
2021/08/18 06:03:53;;;;;;;7.80;5.00;;;;;;;15.45;68.08;100469.13;4929369;29;20032;-80
2021/08/18 06:06:20;;;;;;;7.60;4.65;;;;;;;15.64;68.09;100480.13;4929631;29;20511;-80
2021/08/18 06:08:45;;;;;;;7.75;4.78;;;;;;;15.79;67.28;100479.72;4928952;29;20052;-80
2021/08/18 06:11:11;;;;;;;7.10;4.18;;;;;;;15.90;67.05;100479.41;4930160;29;20224;-80
2021/08/18 06:13:36;;;;;;;8.20;4.95;;;;;;;15.89;66.98;100488.34;4943430;29;20044;-80
2021/08/18 06:16:02;;;;;;;7.68;4.53;;;;;;;15.87;67.03;100483.03;4930974;29;20036;-80
2021/08/18 06:18:27;;;;;;;6.65;3.88;;;;;;;15.90;66.79;100482.09;4927887;29;20051;-80
2021/08/18 06:20:53;;;;;;;8.18;4.10;;;;;;;15.99;66.73;100482.69;4929862;29;20516;-81
2021/08/18 06:23:21;;;;;;;6.50;3.85;;;;;;;16.07;66.66;100481.59;4926220;29;20051;-80
2021/08/18 06:25:47;;;;;;;8.45;4.32;;;;;;;16.05;66.42;100478.97;4930328;29;20040;-80
2021/08/18 06:28:12;;;;;;;6.57;4.05;;;;;;;16.11;66.06;100478.81;4943854;29;20055;-80
2021/08/18 06:30:37;;;;;;;5.93;4.00;;;;;;;16.29;65.78;100482.69;4928572;29;20047;-80
2021/08/18 06:33:03;;;;;;;6.22;3.42;;;;;;;16.46;65.14;100471.53;4924926;29;20044;-80
2021/08/18 06:35:28;;;;;;;10.23;4.13;;;;;;;16.47;64.78;100478.59;4944796;29;20032;-80
2021/08/18 06:37:53;;;;;;;5.88;3.45;;;;;;;16.58;64.60;100480.91;4933465;29;20043;-80
2021/08/18 06:40:19;;;;;;;10.63;4.90;;;;;;;16.69;64.47;100484.13;4929567;29;20089;-80
2021/08/18 06:42:44;;;;;;;7.57;4.25;;;;;;;16.59;64.21;100482.69;4930618;29;20040;-80
2021/08/18 06:45:12;;;;;;;5.63;3.53;;;;;;;16.77;64.13;100481.22;4929230;29;20075;-80
2021/08/18 06:47:38;;;;;;;5.97;3.40;;;;;;;16.78;64.77;100486.50;4943768;29;20044;-81
2021/08/18 06:50:04;;;;;;;7.68;3.85;;;;;;;16.96;64.24;100489.50;4933065;29;20051;-79
2021/08/18 06:52:30;;;;;;;4.93;3.20;;;;;;;17.15;63.38;100487.09;4925732;29;20044;-80
2021/08/18 06:54:56;;;;;;;5.35;3.40;;;;;;;17.08;63.69;100484.66;4934061;29;20486;-80
2021/08/18 06:57:22;;;;;;;7.22;3.72;;;;;;;17.00;63.28;100478.69;4931369;29;20035;-80
2021/08/18 06:59:47;;;;;;;6.18;3.50;;;;;;;17.14;63.25;100480.03;4926072;29;20545;-81
2021/08/18 07:02:12;;;;;;;5.43;3.25;;;;;;;17.31;63.00;100478.50;4933314;29;20031;-80
2021/08/18 07:04:38;;;;;;;7.30;4.07;;;;;;;17.29;62.44;100476.81;4951524;28;20040;-81
2021/08/18 07:07:03;;;;;;;6.43;3.28;;;;;;;17.46;62.08;100476.22;4936843;29;20043;-80
2021/08/18 07:09:29;;;;;;;6.93;3.47;;;;;;;17.51;62.07;100468.94;4939868;28;20051;-80
2021/08/18 07:11:54;;;;;;;6.90;3.42;;;;;;;17.71;61.88;100473.53;4941038;29;20047;-81
2021/08/18 07:14:20;;;;;;;5.07;3.60;;;;;;;17.79;61.63;100474.19;4940805;28;20035;-80
2021/08/18 07:16:45;;;;;;;6.05;3.50;;;;;;;17.93;61.27;100471.84;4928896;29;20048;-80
2021/08/18 07:19:11;;;;;;;6.15;3.65;;;;;;;18.14;61.02;100466.63;4934384;29;20478;-80
2021/08/18 07:21:36;;;;;;;5.97;3.25;;;;;;;18.20;60.99;100458.38;4929300;29;20036;-81
2021/08/18 07:24:02;;;;;;;5.10;3.15;;;;;;;18.31;60.57;100468.63;4932538;29;20122;-80
2021/08/18 07:26:27;;;;;;;5.57;3.40;;;;;;;18.28;60.26;100471.44;4930464;29;20108;-80
2021/08/18 07:28:58;;;;;;;7.72;4.15;;;;;;;18.30;60.49;100464.25;4933365;29;20050;-80
2021/08/18 07:31:25;;;;;;;4.38;2.75;;;;;;;18.18;60.39;100469.13;4937701;29;20486;-81
2021/08/18 07:33:50;;;;;;;4.95;2.70;;;;;;;18.12;60.82;100465.81;4920686;29;20108;-80
2021/08/18 07:36:16;;;;;;;4.90;2.83;;;;;;;18.16;60.85;100462.13;4947989;29;20059;-80
2021/08/18 07:38:41;;;;;;;5.25;2.70;;;;;;;18.18;60.56;100469.13;4945340;29;20040;-80
2021/08/18 07:41:06;;;;;;;5.82;2.80;;;;;;;18.35;59.90;100468.47;4931300;29;20032;-80
2021/08/18 07:43:32;;;;;;;7.05;3.13;;;;;;;18.35;60.23;100467.59;4928261;29;20082;-80
2021/08/18 07:45:57;;;;;;;5.75;2.72;;;;;;;18.24;60.19;100464.50;4947999;29;20036;-80
2021/08/18 07:48:23;;;;;;;5.22;2.95;;;;;;;18.43;60.29;100459.28;4938309;29;20633;-80
2021/08/18 07:50:48;;;;;;;4.50;2.53;;;;;;;18.46;60.36;100460.03;4935142;29;20040;-80
2021/08/18 07:53:13;;;;;;;4.50;2.80;;;;;;;18.25;60.03;100461.75;4936540;29;20035;-80
2021/08/18 07:55:38;;;;;;;4.50;2.67;;;;;;;18.11;60.62;100459.63;4934518;29;20043;-81
2021/08/18 07:58:04;;;;;;;4.10;2.50;;;;;;;18.11;61.11;100464.09;4936833;29;20051;-80
2021/08/18 08:00:31;;;;;;;6.03;3.10;;;;;;;18.28;61.11;100463.41;4934941;29;20031;-80
2021/08/18 08:02:57;;;;;;;4.82;2.30;;;;;;;18.42;60.18;100465.53;4935546;29;20055;-81
2021/08/18 08:05:22;;;;;;;5.30;2.55;;;;;;;18.58;59.87;100459.53;4935739;29;20039;-80
2021/08/18 08:07:47;;;;;;;5.28;2.45;;;;;;;18.71;59.31;100469.75;4932804;29;20091;-81
2021/08/18 08:10:13;;;;;;;4.00;2.58;;;;;;;18.60;59.85;100472.81;4948922;29;20066;-81
2021/08/18 08:12:39;;;;;;;3.85;2.15;;;;;;;18.59;59.61;100458.59;4937158;29;20035;-80
2021/08/18 08:15:07;;;;;;;4.65;2.42;;;;;;;18.44;59.80;100461.88;4933152;29;20042;-80
2021/08/18 08:17:32;;;;;;;4.53;2.42;;;;;;;18.21;60.42;100462.81;4931508;29;20038;-81
2021/08/18 08:19:58;;;;;;;4.05;2.47;;;;;;;18.12;61.09;100471.16;4934846;29;20122;-80
2021/08/18 08:22:24;;;;;;;4.90;2.63;;;;;;;17.81;63.26;100469.63;4933155;29;20048;-80
2021/08/18 08:24:49;;;;;;;4.30;2.53;;;;;;;17.76;64.50;100474.25;4934854;29;20043;-80
2021/08/18 08:27:15;;;;;;;4.80;2.47;;;;;;;17.62;65.91;100482.75;4932445;29;20040;-80
2021/08/18 08:29:40;;;;;;;7.95;2.60;;;;;;;17.14;69.43;100482.69;4931691;29;20466;-80
2021/08/18 08:32:06;;;;;;;6.55;2.75;;;;;;;16.77;71.35;100487.44;4927491;29;20471;-81
2021/08/18 08:34:32;;;;;;;4.65;2.33;;;;;;;16.76;70.58;100490.13;4929757;29;20050;-80
2021/08/18 08:36:57;;;;;;;3.80;2.08;;;;;;;16.85;70.22;100480.06;4932514;29;20071;-80
2021/08/18 08:39:22;;;;;;;4.85;2.50;;;;;;;17.02;69.52;100479.50;4929895;29;20059;-80
2021/08/18 08:41:49;;;;;;;4.85;2.88;;;;;;;17.24;69.78;100481.47;4932255;29;20492;-80
2021/08/18 08:44:19;;;;;;;4.93;2.38;;;;;;;17.60;69.03;100483.75;4930255;29;20040;-80
2021/08/18 08:46:47;;;;;;;3.47;2.00;;;;;;;17.68;68.01;100485.22;4932103;29;20032;-80
2021/08/18 08:49:14;;;;;;;6.13;2.30;;;;;;;17.71;68.91;100478.88;4934820;29;20043;-81
2021/08/18 08:51:39;;;;;;;4.10;2.47;;;;;;;18.04;68.32;100486.59;4936642;29;20050;-80
2021/08/18 08:54:04;;;;;;;6.85;3.30;;;;;;;18.52;66.98;100470.50;4933019;29;20039;-79
2021/08/18 08:56:30;;;;;;;5.55;2.88;;;;;;;18.79;65.74;100479.22;4944968;29;20134;-80
2021/08/18 08:58:55;;;;;;;4.18;2.50;;;;;;;18.68;65.16;100472.50;4934230;29;20071;-80
2021/08/18 09:01:20;;;;;;;4.25;2.35;;;;;;;18.45;65.59;100474.31;4932073;29;20095;-80
2021/08/18 09:03:46;;;;;;;4.13;2.15;;;;;;;18.64;65.67;100463.75;4934585;29;20039;-81
2021/08/18 09:06:20;;;;;;;4.20;2.13;;;;;;;18.88;66.29;100464.59;4929965;29;20048;-80
2021/08/18 09:08:50;;;;;;;4.20;2.22;;;;;;;18.95;64.54;100462.53;4946747;29;20036;-81
2021/08/18 09:11:17;;;;;;;5.28;2.45;;;;;;;19.42;62.92;100452.47;4931241;29;20035;-81
2021/08/18 09:13:43;;;;;;;3.83;2.38;;;;;;;19.81;61.44;100457.00;4945472;29;20495;-80
2021/08/18 09:16:10;;;;;;;3.63;2.00;;;;;;;20.04;60.72;100447.94;4934366;29;20505;-80
2021/08/18 09:18:37;;;;;;;3.50;2.10;;;;;;;20.28;59.47;100453.06;4934413;29;20380;-80
2021/08/18 09:21:24;;;;;;;3.42;2.15;;;;;;;20.20;60.17;100450.75;4934275;29;20039;-80
2021/08/18 09:23:49;;;;;;;3.50;2.10;;;;;;;19.89;61.15;100448.63;4947797;29;20039;-80
2021/08/18 09:26:21;;;;;;;4.00;2.25;;;;;;;19.96;60.67;100441.16;4930631;29;20115;-80
2021/08/18 09:28:47;;;;;;;4.18;2.15;;;;;;;20.05;61.18;100441.59;4930005;29;20131;-80
2021/08/18 09:31:24;;;;;;;5.35;2.50;;;;;;;20.32;59.91;100441.25;4931735;29;20505;-80
2021/08/18 09:33:55;;;;;;;3.78;2.17;;;;;;;20.29;59.45;100439.56;4982166;22;20060;-81
2021/08/18 09:36:25;;;;;;;3.83;2.10;;;;;;;20.42;58.69;100442.53;4997762;28;20034;-80
2021/08/18 09:39:24;;;;;;;5.00;2.72;;;;;;;20.48;58.84;100439.53;4998894;28;20048;-80
2021/08/18 09:41:50;;;;;;;3.95;2.20;;;;;;;20.82;58.46;100432.56;4980260;28;20077;-80
2021/08/18 09:44:16;;;;;;;3.78;2.00;;;;;;;20.56;56.20;100425.81;4986896;28;20082;-80
2021/08/18 09:46:41;;;;;;;4.55;1.88;;;;;;;20.26;58.74;100436.19;4956531;28;20042;-80
2021/08/18 09:49:09;;;;;;;3.67;1.70;;;;;;;20.39;58.96;100434.66;4970392;28;20031;-81
2021/08/18 09:51:35;;;;;;;5.03;1.80;;;;;;;20.41;58.42;100423.84;4982758;28;20043;-80
2021/08/18 09:54:17;;;;;;;3.53;1.52;;;;;;;20.78;56.07;100417.56;4979334;28;20031;-80
2021/08/18 09:56:44;;;;;;;3.13;1.70;;;;;;;20.84;55.54;100419.06;4972193;28;20038;-80
2021/08/18 09:59:09;;;;;;;4.07;2.40;;;;;;;21.26;56.40;100417.81;4969583;28;20035;-80
2021/08/18 10:01:35;;;;;;;2.67;1.60;;;;;;;21.37;54.89;100418.97;4957405;28;20034;-80
2021/08/18 10:04:01;;;;;;;3.50;1.65;;;;;;;21.26;55.26;100409.75;4967619;28;20039;-79
2021/08/18 10:06:26;;;;;;;2.90;1.52;;;;;;;21.19;55.46;100420.81;4976304;28;20035;-81
2021/08/18 10:08:55;;;;;;;3.92;2.00;;;;;;;20.95;55.49;100414.88;4968351;28;20105;-79
2021/08/18 10:11:21;;;;;;;4.38;1.85;;;;;;;21.27;55.15;100409.66;4954812;28;20038;-80
2021/08/18 10:13:47;;;;;;;4.70;1.65;;;;;;;21.55;55.26;100406.41;4969191;28;20039;-81
2021/08/18 10:16:13;;;;;;;3.95;1.92;;;;;;;21.83;53.21;100408.50;4964805;28;20062;-81
2021/08/18 10:18:43;;;;;;;3.42;1.60;;;;;;;21.58;54.09;100405.38;4944711;28;20248;-82
2021/08/18 10:21:30;;;;;;;3.22;1.90;;;;;;;21.58;54.58;100405.38;4968453;28;20037;-81
2021/08/18 10:23:58;;;;;;;2.65;1.48;;;;;;;21.84;53.58;100398.59;4972187;28;20045;-81
2021/08/18 10:26:33;;;;;;;2.88;1.60;;;;;;;21.99;53.20;100389.69;4958562;28;20030;-82
2021/08/18 10:29:19;;;;;;;3.35;2.00;;;;;;;22.21;52.41;100392.06;4963220;28;20409;-81
2021/08/18 10:32:12;;;;;;;4.22;1.80;;;;;;;22.61;51.61;100389.78;4962224;28;20053;-82
2021/08/18 10:34:50;;;;;;;4.57;1.58;;;;;;;22.12;51.54;100376.44;4963387;28;20053;-82
2021/08/18 10:37:27;;;;;;;4.03;1.63;;;;;;;22.26;51.95;100381.06;4983892;28;20094;-82
2021/08/18 10:39:57;;;;;;;2.38;1.25;;;;;;;22.41;50.97;100374.81;4978397;28;20544;-81
2021/08/18 10:42:35;;;;;;;2.17;1.05;;;;;;;22.22;49.37;100383.06;4979890;28;20121;-82
2021/08/18 10:45:00;;;;;;;2.55;1.48;;;;;;;21.81;50.27;100378.16;4980249;28;20042;-80
2021/08/18 10:47:29;;;;;;;2.10;1.00;;;;;;;21.60;50.50;100387.38;4982888;28;20039;-81
2021/08/18 10:50:23;;;;;;;2.50;1.15;;;;;;;21.37;52.20;100385.91;4964267;28;20038;-80
2021/08/18 10:52:58;;;;;;;2.47;1.08;;;;;;;21.26;51.80;100378.41;4945247;28;20495;-81
2021/08/18 10:55:23;;;;;;;1.67;1.10;;;;;;;21.20;52.39;100368.03;4947602;28;20039;-81
2021/08/18 10:57:50;;;;;;;3.00;1.30;;;;;;;21.16;52.60;100378.03;4964088;28;20598;-83
2021/08/18 11:00:42;;;;;;;2.30;1.30;;;;;;;21.13;52.94;100374.66;4974872;28;20074;-78
2021/08/18 11:03:07;;;;;;;;;;;;;;;21.00;53.19;100372.59;4951698;28;20592;-81
2021/08/18 11:05:38;;;;;;;2.10;1.20;;;;;;;21.00;53.43;100372.59;4968714;28;19921;-81
2021/08/18 11:08:18;;;;;;;1.77;0.98;;;;;;;21.09;53.09;100376.63;4950526;28;20489;-80
2021/08/18 11:10:50;;;;;;;3.30;0.98;;;;;;;21.12;52.24;100370.25;4969370;28;20126;-81
2021/08/18 11:13:16;;;;;;;3.53;1.45;;;;;;;21.05;52.94;100369.69;4974510;28;20039;-81
2021/08/18 11:15:41;;;;;;;2.50;1.10;;;;;;;20.80;54.02;100370.06;4967477;28;20063;-81
2021/08/18 11:18:08;;;;;;;3.97;1.48;;;;;;;20.79;54.42;100379.06;4975755;28;20073;-81
2021/08/18 11:20:34;;;;;;;3.10;1.40;;;;;;;20.76;54.89;100369.38;4968773;28;20662;-82
2021/08/18 11:23:02;;;;;;;2.85;1.27;;;;;;;20.58;55.44;100376.53;4956384;28;20113;-81